createdAt,value
2019-03-22T08:38:48.090Z,25.52
2019-03-22T08:38:49.213Z,25.54
2019-03-22T08:38:50.340Z,25.54
2019-03-22T08:38:51.470Z,25.54
2019-03-22T08:38:52.596Z,25.55
2019-03-22T08:38:53.719Z,25.55
2019-03-22T08:38:54.880Z,25.55
2019-03-22T08:38:56.065Z,25.55
2019-03-22T08:38:57.192Z,25.55
2019-03-22T08:38:58.370Z,25.55
2019-03-22T08:38:59.550Z,25.55
2019-03-22T08:39:00.686Z,25.55
2019-03-22T08:39:01.814Z,25.55
2019-03-22T08:39:02.989Z,25.55
2019-03-22T08:39:04.129Z,25.55
2019-03-22T08:39:05.286Z,25.55
2019-03-22T08:39:06.413Z,25.57
2019-03-22T08:39:07.612Z,25.55
2019-03-22T08:39:08.749Z,25.55
2019-03-22T08:39:09.881Z,25.55
2019-03-22T08:39:11.009Z,25.55
2019-03-22T08:39:12.149Z,25.55
2019-03-22T08:39:13.297Z,25.54
2019-03-22T08:39:14.440Z,25.54
2019-03-22T08:39:15.586Z,25.54
2019-03-22T08:39:17.352Z,25.54
2019-03-22T08:39:18.799Z,25.52
2019-03-22T08:39:19.951Z,25.54
2019-03-22T08:39:21.104Z,25.52
2019-03-22T08:39:22.348Z,25.54
2019-03-22T08:39:23.496Z,25.52
2019-03-22T08:39:24.637Z,25.52
2019-03-22T08:39:25.760Z,25.51
2019-03-22T08:39:26.886Z,25.52
2019-03-22T08:39:28.012Z,25.52
2019-03-22T08:39:29.136Z,25.52
2019-03-22T08:39:30.280Z,25.54
2019-03-22T08:39:31.452Z,25.52
2019-03-22T08:39:32.640Z,25.52
2019-03-22T08:39:33.794Z,25.52
2019-03-22T08:39:34.919Z,25.54
2019-03-22T08:39:36.127Z,25.52
2019-03-22T08:39:37.295Z,25.52
2019-03-22T08:39:38.428Z,25.52
2019-03-22T08:39:39.559Z,25.52
2019-03-22T08:39:40.704Z,25.54
2019-03-22T08:39:41.840Z,25.54
2019-03-22T08:39:42.995Z,25.54
2019-03-22T08:39:44.136Z,25.54
2019-03-22T08:39:45.266Z,25.54
2019-03-22T08:39:46.389Z,25.54
2019-03-22T08:39:47.548Z,25.54
2019-03-22T08:39:48.686Z,25.54
2019-03-22T08:39:49.837Z,25.54
2019-03-22T08:39:50.958Z,25.54
2019-03-22T08:39:52.094Z,25.54
2019-03-22T08:39:55.813Z,25.55
2019-03-22T08:39:57.299Z,25.57
2019-03-22T08:39:58.499Z,25.55
2019-03-22T08:39:59.627Z,25.57
2019-03-22T08:40:00.756Z,25.57
2019-03-22T08:40:01.937Z,25.57
2019-03-22T08:40:08.031Z,25.57
2019-03-22T08:40:09.178Z,25.57
2019-03-22T08:40:10.325Z,25.55
2019-03-22T08:40:11.462Z,25.55
2019-03-22T08:40:12.604Z,25.55
2019-03-22T08:40:13.771Z,25.55
2019-03-22T08:40:14.919Z,25.55
2019-03-22T08:40:16.056Z,25.57
2019-03-22T08:40:17.200Z,25.55
2019-03-22T08:40:18.329Z,25.55
2019-03-22T08:40:19.542Z,25.57
2019-03-22T08:40:20.732Z,25.55
2019-03-22T08:40:21.857Z,25.57
2019-03-22T08:40:23.036Z,25.55
2019-03-22T08:40:24.191Z,25.55
2019-03-22T08:40:25.392Z,25.57
2019-03-22T08:40:26.703Z,25.57
2019-03-22T08:40:27.884Z,25.57
2019-03-22T08:40:29.063Z,25.57
2019-03-22T08:40:30.202Z,25.57
2019-03-22T08:40:31.347Z,25.57
2019-03-22T08:40:32.477Z,25.55
2019-03-22T08:40:33.635Z,25.57
2019-03-22T08:40:34.770Z,25.57
2019-03-22T08:40:35.934Z,25.57
2019-03-22T08:40:37.087Z,25.57
2019-03-22T08:40:38.221Z,25.57
2019-03-22T08:40:39.413Z,25.58
2019-03-22T08:40:40.589Z,25.57
2019-03-22T08:40:41.764Z,25.57
2019-03-22T08:40:42.906Z,25.58
2019-03-22T08:40:44.140Z,25.58
2019-03-22T08:40:45.274Z,25.60
2019-03-22T08:40:46.404Z,25.58
2019-03-22T08:40:47.545Z,25.58
2019-03-22T08:40:48.705Z,25.57
2019-03-22T08:40:49.860Z,25.58
2019-03-22T08:40:51.007Z,25.57
2019-03-22T08:40:52.135Z,25.58
2019-03-22T08:40:53.260Z,25.57
2019-03-22T08:40:54.386Z,25.58
2019-03-22T08:40:55.519Z,25.58
2019-03-22T08:40:56.693Z,25.57
2019-03-22T08:40:57.895Z,25.58
2019-03-22T08:40:59.029Z,25.58
2019-03-22T08:41:00.149Z,25.58
2019-03-22T08:41:01.278Z,25.60
2019-03-22T08:41:02.420Z,25.58
2019-03-22T08:41:03.639Z,25.58
2019-03-22T08:41:04.787Z,25.58
2019-03-22T08:41:05.962Z,25.60
2019-03-22T08:41:07.106Z,25.60
2019-03-22T08:41:08.225Z,25.60
2019-03-22T08:41:09.356Z,25.60
2019-03-22T08:41:10.510Z,25.61
2019-03-22T08:41:11.681Z,25.61
2019-03-22T08:41:12.821Z,25.61
2019-03-22T08:41:13.961Z,25.60
2019-03-22T08:41:15.152Z,25.60
2019-03-22T08:41:16.301Z,25.60
2019-03-22T08:41:17.444Z,25.60
2019-03-22T08:41:18.579Z,25.61
2019-03-22T08:41:19.757Z,25.60
2019-03-22T08:41:23.689Z,25.62
2019-03-22T08:41:25.122Z,25.61
2019-03-22T08:41:26.270Z,25.61
2019-03-22T08:41:27.397Z,25.61
2019-03-22T08:41:28.535Z,25.62
2019-03-22T08:41:29.720Z,25.61
2019-03-22T08:41:30.862Z,25.61
2019-03-22T08:41:32.006Z,25.61
2019-03-22T08:41:33.139Z,25.64
2019-03-22T08:41:34.267Z,25.64
2019-03-22T08:41:35.420Z,25.64
2019-03-22T08:41:36.600Z,25.64
2019-03-22T08:41:37.757Z,25.64
2019-03-22T08:41:38.882Z,25.65
2019-03-22T08:41:40.034Z,25.65
2019-03-22T08:41:41.177Z,25.64
2019-03-22T08:41:42.305Z,25.65
2019-03-22T08:41:43.442Z,25.65
2019-03-22T08:41:44.590Z,25.65
2019-03-22T08:41:45.788Z,25.67
2019-03-22T08:41:46.981Z,25.67
2019-03-22T08:41:48.116Z,25.65
2019-03-22T08:41:49.261Z,25.65
2019-03-22T08:41:50.475Z,25.65
2019-03-22T08:41:51.645Z,25.65
2019-03-22T08:41:52.785Z,25.64
2019-03-22T08:41:53.920Z,25.65
2019-03-22T08:41:55.054Z,25.64
2019-03-22T08:41:56.297Z,25.64
2019-03-22T08:41:57.430Z,25.64
2019-03-22T08:41:58.569Z,25.62
2019-03-22T08:41:59.716Z,25.62
2019-03-22T08:42:00.865Z,25.62
2019-03-22T08:42:02.070Z,25.62
2019-03-22T08:42:03.244Z,25.62
2019-03-22T08:42:04.403Z,25.62
2019-03-22T08:42:05.540Z,25.61
2019-03-22T08:42:06.711Z,25.61
2019-03-22T08:42:07.847Z,25.61
2019-03-22T08:42:08.992Z,25.60
2019-03-22T08:42:10.127Z,25.60
2019-03-22T08:42:11.253Z,25.58
2019-03-22T08:42:12.428Z,25.60
2019-03-22T08:42:13.567Z,25.58
2019-03-22T08:42:14.765Z,25.58
2019-03-22T08:42:15.908Z,25.57
2019-03-22T08:42:17.040Z,25.57
2019-03-22T08:42:18.175Z,25.55
2019-03-22T08:42:19.356Z,25.57
2019-03-22T08:42:20.508Z,25.55
2019-03-22T08:42:21.652Z,25.54
2019-03-22T08:42:22.784Z,25.55
2019-03-22T08:42:23.919Z,25.54
2019-03-22T08:42:25.096Z,25.52
2019-03-22T08:42:26.242Z,25.52
2019-03-22T08:42:27.382Z,25.54
2019-03-22T08:42:28.517Z,25.52
2019-03-22T08:42:29.653Z,25.51
2019-03-22T08:42:30.773Z,25.52
2019-03-22T08:42:31.898Z,25.50
2019-03-22T08:42:33.044Z,25.51
2019-03-22T08:42:34.213Z,25.50
2019-03-22T08:42:35.356Z,25.51
2019-03-22T08:42:36.544Z,25.50
2019-03-22T08:42:37.674Z,25.47
2019-03-22T08:42:38.841Z,25.47
2019-03-22T08:42:39.986Z,25.50
2019-03-22T08:42:41.146Z,25.47
2019-03-22T08:42:42.322Z,25.46
2019-03-22T08:42:43.468Z,25.46
2019-03-22T08:42:44.669Z,25.46
2019-03-22T08:42:45.844Z,25.46
2019-03-22T08:42:46.971Z,25.45
2019-03-22T08:42:48.104Z,25.45
2019-03-22T08:42:49.229Z,25.43
2019-03-22T08:42:50.353Z,25.43
2019-03-22T08:42:51.506Z,25.42
2019-03-22T08:42:52.635Z,25.42
2019-03-22T08:42:53.817Z,25.40
2019-03-22T08:42:54.964Z,25.43
2019-03-22T08:42:56.097Z,25.42
2019-03-22T08:42:57.232Z,25.40
2019-03-22T08:42:58.421Z,25.40
2019-03-22T08:42:59.599Z,25.40
2019-03-22T08:43:00.757Z,25.39
2019-03-22T08:43:01.908Z,25.39
2019-03-22T08:43:03.038Z,25.38
2019-03-22T08:43:04.209Z,25.39
2019-03-22T08:43:05.363Z,25.38
2019-03-22T08:43:06.503Z,25.36
2019-03-22T08:43:07.697Z,25.38
2019-03-22T08:43:08.877Z,25.36
2019-03-22T08:43:10.017Z,25.36
2019-03-22T08:43:11.151Z,25.36
2019-03-22T08:43:12.352Z,25.35
2019-03-22T08:43:13.547Z,25.35
2019-03-22T08:43:14.693Z,25.35
2019-03-22T08:43:16.058Z,25.33
2019-03-22T08:43:17.195Z,25.33
2019-03-22T08:43:18.349Z,25.33
2019-03-22T08:43:19.482Z,25.33
2019-03-22T08:43:20.618Z,25.32
2019-03-22T08:43:21.790Z,25.32
2019-03-22T08:43:22.934Z,25.32
2019-03-22T08:43:24.102Z,25.30
2019-03-22T08:43:25.254Z,25.30
2019-03-22T08:43:26.396Z,25.30
2019-03-22T08:43:27.530Z,25.30
2019-03-22T08:43:28.664Z,25.28
2019-03-22T08:43:29.827Z,25.28
2019-03-22T08:43:30.960Z,25.28
2019-03-22T08:43:32.121Z,25.28
2019-03-22T08:43:33.252Z,25.28
2019-03-22T08:43:34.412Z,25.27
2019-03-22T08:43:35.547Z,25.27
2019-03-22T08:43:36.760Z,25.27
2019-03-22T08:43:37.885Z,25.25
2019-03-22T08:43:39.035Z,25.24
2019-03-22T08:43:40.167Z,25.24
2019-03-22T08:43:41.332Z,25.23
2019-03-22T08:43:42.472Z,25.24
2019-03-22T08:43:43.601Z,25.24
2019-03-22T08:43:44.754Z,25.24
2019-03-22T08:43:45.945Z,25.23
2019-03-22T08:43:47.081Z,25.23
2019-03-22T08:43:48.211Z,25.23
2019-03-22T08:43:49.364Z,25.23
2019-03-22T08:43:50.535Z,25.20
2019-03-22T08:43:51.669Z,25.21
2019-03-22T08:43:52.843Z,25.20
2019-03-22T08:43:54.020Z,25.20
2019-03-22T08:43:55.147Z,25.20
2019-03-22T08:43:56.287Z,25.21
2019-03-22T08:43:57.439Z,25.20
2019-03-22T08:43:58.644Z,25.20
2019-03-22T08:44:02.617Z,25.20
2019-03-22T08:44:04.056Z,25.20
2019-03-22T08:44:05.220Z,25.21
2019-03-22T08:44:06.363Z,25.23
2019-03-22T08:44:07.509Z,25.21
2019-03-22T08:44:08.687Z,25.21
2019-03-22T08:44:09.963Z,25.23
2019-03-22T08:44:11.094Z,25.23
2019-03-22T08:44:12.246Z,25.23
2019-03-22T08:44:13.389Z,25.24
2019-03-22T08:44:14.558Z,25.24
2019-03-22T08:44:15.718Z,25.25
2019-03-22T08:44:16.856Z,25.25
2019-03-22T08:44:18.012Z,25.27
2019-03-22T08:44:19.137Z,25.27
2019-03-22T08:44:20.261Z,25.27
2019-03-22T08:44:21.393Z,25.28
2019-03-22T08:44:22.525Z,25.28
2019-03-22T08:44:23.657Z,25.32
2019-03-22T08:44:24.811Z,25.30
2019-03-22T08:44:25.967Z,25.30
2019-03-22T08:44:27.124Z,25.30
2019-03-22T08:44:28.256Z,25.32
2019-03-22T08:44:29.390Z,25.32
2019-03-22T08:44:30.603Z,25.30
2019-03-22T08:44:31.764Z,25.32
2019-03-22T08:44:32.892Z,25.32
2019-03-22T08:44:34.055Z,25.32
2019-03-22T08:44:35.192Z,25.32
2019-03-22T08:44:36.345Z,25.32
2019-03-22T08:44:37.475Z,25.30
2019-03-22T08:44:38.615Z,25.32
2019-03-22T08:44:39.849Z,25.32
2019-03-22T08:44:41.136Z,25.32
2019-03-22T08:44:42.349Z,25.32
2019-03-22T08:44:43.583Z,25.30
2019-03-22T08:44:44.713Z,25.30
2019-03-22T08:44:45.850Z,25.30
2019-03-22T08:44:47.006Z,25.30
2019-03-22T08:44:48.159Z,25.32
2019-03-22T08:44:49.404Z,25.32
2019-03-22T08:44:50.608Z,25.32
2019-03-22T08:44:51.754Z,25.32
2019-03-22T08:44:52.903Z,25.32
2019-03-22T08:44:54.036Z,25.30
2019-03-22T08:44:55.224Z,25.28
2019-03-22T08:44:56.475Z,25.30
2019-03-22T08:44:57.656Z,25.30
2019-03-22T08:44:58.785Z,25.28
2019-03-22T08:44:59.952Z,25.28
2019-03-22T08:45:01.085Z,25.28
2019-03-22T08:45:02.236Z,25.28
2019-03-22T08:45:03.420Z,25.28
2019-03-22T08:45:04.595Z,25.28
2019-03-22T08:46:13.804Z,25.18
2019-03-22T08:46:14.973Z,25.18
2019-03-22T08:46:16.105Z,25.20
2019-03-22T08:46:17.230Z,25.18
2019-03-22T08:46:18.404Z,25.21
2019-03-22T08:46:19.620Z,25.21
2019-03-22T08:46:20.756Z,25.23
2019-03-22T08:46:21.923Z,25.24
2019-03-22T08:46:23.053Z,25.25
2019-03-22T08:46:24.182Z,25.25
2019-03-22T08:46:25.306Z,25.28
2019-03-22T08:46:26.446Z,25.30
2019-03-22T08:46:27.604Z,25.32
2019-03-22T08:46:28.769Z,25.32
2019-03-22T08:46:29.902Z,25.35
2019-03-22T08:46:31.059Z,25.36
2019-03-22T08:46:32.191Z,25.36
2019-03-22T08:46:33.341Z,25.35
2019-03-22T08:46:56.288Z,25.47
2019-03-22T08:46:57.549Z,25.60
2019-03-22T08:46:58.682Z,25.60
2019-03-22T08:46:59.827Z,25.62
2019-03-22T08:47:00.969Z,25.62
2019-03-22T08:47:02.138Z,25.62
2019-03-22T08:47:03.284Z,25.65
2019-03-22T08:47:04.493Z,25.62
2019-03-22T08:47:05.682Z,25.65
2019-03-22T08:47:06.836Z,25.64
2019-03-22T08:47:08.025Z,25.67
2019-03-22T08:47:09.160Z,25.65
2019-03-22T08:47:10.319Z,25.67
2019-03-22T08:47:11.480Z,25.69
2019-03-22T08:47:12.630Z,25.69
2019-03-22T08:47:13.811Z,25.70
2019-03-22T08:47:14.980Z,25.72
2019-03-22T08:47:16.178Z,25.72
2019-03-22T08:47:17.323Z,25.72
2019-03-22T08:47:18.465Z,25.72
2019-03-22T08:47:19.641Z,25.72
2019-03-22T08:47:32.839Z,25.72
2019-03-22T08:47:33.614Z,25.73
2019-03-22T08:47:35.014Z,25.76
2019-03-22T08:47:36.198Z,25.75
2019-03-22T08:47:42.264Z,25.75
2019-03-22T08:47:43.401Z,25.77
2019-03-22T08:47:44.540Z,25.77
2019-03-22T08:47:45.700Z,25.76
2019-03-22T08:47:46.850Z,25.77
2019-03-22T08:47:48.072Z,25.77
2019-03-22T08:47:49.295Z,25.76
2019-03-22T08:47:50.457Z,25.77
2019-03-22T08:47:51.662Z,25.77
2019-03-22T08:47:52.798Z,25.79
2019-03-22T08:47:54.004Z,25.77
2019-03-22T08:47:55.200Z,25.79
2019-03-22T08:47:57.288Z,25.76
2019-03-22T08:47:58.467Z,25.79
2019-03-22T08:47:59.621Z,25.79
2019-03-22T08:48:00.762Z,25.77
2019-03-22T08:48:01.939Z,25.79
2019-03-22T08:48:03.140Z,25.77
2019-03-22T08:48:04.277Z,25.79
2019-03-22T08:48:05.464Z,25.77
2019-03-22T08:48:06.653Z,25.77
2019-03-22T08:48:07.793Z,25.79
2019-03-22T08:48:08.933Z,25.79
2019-03-22T08:48:10.080Z,25.80
2019-03-22T08:48:11.257Z,25.79
2019-03-22T08:48:12.434Z,25.77
2019-03-22T08:48:13.583Z,25.77
2019-03-22T08:48:14.732Z,25.79
2019-03-22T08:48:15.922Z,25.77
2019-03-22T08:48:17.070Z,25.77
2019-03-22T08:48:18.300Z,25.79
2019-03-22T08:48:19.529Z,25.77
2019-03-22T08:48:20.725Z,25.77
2019-03-22T08:48:21.860Z,25.77
2019-03-22T08:48:23.045Z,25.77
2019-03-22T08:48:24.184Z,25.77
2019-03-22T08:48:25.323Z,25.76
2019-03-22T08:48:26.484Z,25.76
2019-03-22T08:48:27.629Z,25.75
2019-03-22T08:48:28.795Z,25.77
2019-03-22T08:48:29.997Z,25.76
2019-03-22T08:48:31.141Z,25.76
2019-03-22T08:48:32.332Z,25.76
2019-03-22T08:48:33.487Z,25.75
2019-03-22T08:48:34.627Z,25.75
2019-03-22T08:48:35.779Z,25.75
2019-03-22T08:48:36.927Z,25.75
2019-03-22T08:48:38.077Z,25.75
2019-03-22T08:48:39.223Z,25.75
2019-03-22T08:48:40.398Z,25.75
2019-03-22T08:48:41.557Z,25.75
2019-03-22T08:48:42.765Z,25.75
2019-03-22T08:48:43.990Z,25.73
2019-03-22T08:48:45.157Z,25.75
2019-03-22T08:48:46.331Z,25.73
2019-03-22T08:48:47.483Z,25.76
2019-03-22T08:48:48.623Z,25.75
2019-03-22T08:48:49.810Z,25.73
2019-03-22T08:48:50.995Z,25.73
2019-03-22T08:48:52.171Z,25.73
2019-03-22T08:48:53.364Z,25.73
2019-03-22T08:48:54.503Z,25.73
2019-03-22T08:48:55.803Z,25.75
2019-03-22T08:48:57.060Z,25.73
2019-03-22T08:48:58.270Z,25.75
2019-03-22T08:48:59.438Z,25.75
2019-03-22T08:49:00.700Z,25.73
2019-03-22T08:49:02.017Z,25.73
2019-03-22T08:49:03.243Z,25.73
2019-03-22T08:49:04.558Z,25.73
2019-03-22T08:49:09.074Z,25.73
2019-03-22T08:49:10.658Z,25.72
2019-03-22T08:49:11.881Z,25.73
2019-03-22T08:49:13.100Z,25.73
2019-03-22T08:49:14.346Z,25.73
2019-03-22T08:49:15.652Z,25.73
2019-03-22T08:49:16.992Z,25.73
2019-03-22T08:49:18.291Z,25.72
2019-03-22T08:49:19.517Z,25.75
2019-03-22T08:49:20.833Z,25.72
2019-03-22T08:49:22.144Z,25.73
2019-03-22T08:49:23.462Z,25.73
2019-03-22T08:49:24.822Z,25.73
2019-03-22T08:49:26.182Z,25.73
2019-03-22T08:49:27.504Z,25.73
2019-03-22T08:49:28.844Z,25.72
2019-03-22T08:49:30.076Z,25.73
2019-03-22T08:49:31.490Z,25.73
2019-03-22T08:49:32.853Z,25.73
2019-03-22T08:49:34.271Z,25.72
2019-03-22T08:49:35.629Z,25.72
2019-03-22T08:49:37.056Z,25.75
2019-03-22T08:49:38.443Z,25.73
2019-03-22T08:49:39.952Z,25.73
2019-03-22T08:49:41.358Z,25.73
2019-03-22T08:51:49.441Z,26.39
